Terminal Aerodrome Forecast
Issued by NWS Sterling, VA

Current Version | Previous Version | Text Only | Print | Product List | Glossary Off
Versions: 1 2 3 4 5 6 7 8 9 10 11 12 13 14 15 16 17 18 19 20 21 22 23 24 25 26 27 28 29 30 31

424
FTUS41 KLWX 271448 AAA
TAFIAD
TAF AMD
KIAD 271448Z 2715/2818 19007KT 3SM BR OVC008
     FM271600 21006KT P6SM BKN030
     FM271900 22008KT P6SM BKN050
     FM280000 17004KT P6SM BKN050
     FM281200 00000KT P6SM -SHRA BKN050=

USA.gov is the U.S. government's official web portal to all federal, state and local government web resources and services.